sensor_id;sensor_type;location;lat;lon;timestamp;pressure;altitude;pressure_sealevel;temperature;humidity
81109;BME280;70589;51.826;5.860;2023-06-10T00:04:59;101210.63;;;30.77;26.00
81109;BME280;70589;51.826;5.860;2023-06-10T00:09:59;101212.22;;;30.61;26.14
81109;BME280;70589;51.826;5.860;2023-06-10T00:14:59;101216.77;;;30.67;26.23
81109;BME280;70589;51.826;5.860;2023-06-10T00:19:59;101216.58;;;30.39;26.36
81109;BME280;70589;51.826;5.860;2023-06-10T00:24:59;101217.54;;;30.29;26.50
81109;BME280;70589;51.826;5.860;2023-06-10T00:30:00;101211.93;;;30.03;26.68
81109;BME280;70589;51.826;5.860;2023-06-10T00:34:59;101213.35;;;29.89;26.96
81109;BME280;70589;51.826;5.860;2023-06-10T00:39:59;101216.36;;;29.78;27.03
81109;BME280;70589;51.826;5.860;2023-06-10T00:44:59;101221.47;;;30.02;26.79
81109;BME280;70589;51.826;5.860;2023-06-10T00:49:59;101225.96;;;29.88;27.02
81109;BME280;70589;51.826;5.860;2023-06-10T00:54:59;101227.10;;;29.68;27.46
81109;BME280;70589;51.826;5.860;2023-06-10T06:50:59;101332.18;;;25.10;31.24
81109;BME280;70589;51.826;5.860;2023-06-10T06:53:25;101333.71;;;24.70;31.34
81109;BME280;70589;51.826;5.860;2023-06-10T06:55:51;101336.10;;;24.65;31.58
81109;BME280;70589;51.826;5.860;2023-06-10T12:18:29;101246.75;;;44.00;9.61
81109;BME280;70589;51.826;5.860;2023-06-10T12:20:55;101244.75;;;43.35;10.15
81109;BME280;70589;51.826;5.860;2023-06-10T12:23:20;101240.56;;;42.81;9.81
81109;BME280;70589;51.826;5.860;2023-06-10T12:25:51;101239.69;;;43.16;9.84
81109;BME280;70589;51.826;5.860;2023-06-10T12:28:13;101236.15;;;43.28;9.55
81109;BME280;70589;51.826;5.860;2023-06-10T12:30:37;101233.73;;;43.96;9.67
81109;BME280;70589;51.826;5.860;2023-06-10T12:33:02;101232.82;;;43.51;9.20
81109;BME280;70589;51.826;5.860;2023-06-10T12:35:28;101225.60;;;44.13;9.37
81109;BME280;70589;51.826;5.860;2023-06-10T12:37:55;101225.32;;;44.46;8.99
81109;BME280;70589;51.826;5.860;2023-06-10T12:40:25;101233.99;;;43.60;10.06
81109;BME280;70589;51.826;5.860;2023-06-10T12:42:45;101223.40;;;43.59;8.81
81109;BME280;70589;51.826;5.860;2023-06-10T12:45:10;101225.78;;;44.06;9.30
81109;BME280;70589;51.826;5.860;2023-06-10T12:47:37;101226.57;;;44.50;8.62
81109;BME280;70589;51.826;5.860;2023-06-10T12:50:02;101216.62;;;46.25;8.58
81109;BME280;70589;51.826;5.860;2023-06-10T12:52:27;101218.57;;;44.70;7.83
81109;BME280;70589;51.826;5.860;2023-06-10T12:54:52;101228.36;;;44.73;8.09
81109;BME280;70589;51.826;5.860;2023-06-10T12:57:18;101229.09;;;44.71;8.08
81109;BME280;70589;51.826;5.860;2023-06-10T12:59:43;101228.90;;;43.05;8.42
81109;BME280;70589;51.826;5.860;2023-06-10T13:02:09;101226.51;;;44.88;8.14
81109;BME280;70589;51.826;5.860;2023-06-10T13:04:35;101224.26;;;45.43;8.06
81109;BME280;70589;51.826;5.860;2023-06-10T13:07:00;101218.81;;;45.48;7.62
81109;BME280;70589;51.826;5.860;2023-06-10T13:09:26;101220.06;;;47.02;7.13
81109;BME280;70589;51.826;5.860;2023-06-10T13:11:51;101223.71;;;45.91;7.34
81109;BME280;70589;51.826;5.860;2023-06-10T13:14:17;101223.67;;;47.28;7.17
81109;BME280;70589;51.826;5.860;2023-06-10T13:16:43;101218.08;;;46.93;7.16
81109;BME280;70589;51.826;5.860;2023-06-10T13:19:08;101212.27;;;47.60;6.46
81109;BME280;70589;51.826;5.860;2023-06-10T13:21:34;101213.81;;;48.50;7.38
81109;BME280;70589;51.826;5.860;2023-06-10T13:23:59;101207.99;;;49.10;6.33
81109;BME280;70589;51.826;5.860;2023-06-10T13:26:25;101203.56;;;48.94;6.82
81109;BME280;70589;51.826;5.860;2023-06-10T13:28:50;101211.81;;;47.14;6.44
81109;BME280;70589;51.826;5.860;2023-06-10T13:31:16;101209.36;;;46.74;6.97
81109;BME280;70589;51.826;5.860;2023-06-10T13:33:42;101204.82;;;47.91;6.86
81109;BME280;70589;51.826;5.860;2023-06-10T13:36:07;101198.93;;;48.28;6.59
81109;BME280;70589;51.826;5.860;2023-06-10T13:38:33;101201.47;;;48.87;6.29
81109;BME280;70589;51.826;5.860;2023-06-10T13:40:58;101197.59;;;49.30;6.94
81109;BME280;70589;51.826;5.860;2023-06-10T13:43:24;101198.56;;;48.57;5.52
81109;BME280;70589;51.826;5.860;2023-06-10T13:45:49;101188.95;;;48.13;5.50
81109;BME280;70589;51.826;5.860;2023-06-10T13:48:15;101186.68;;;47.83;6.79
81109;BME280;70589;51.826;5.860;2023-06-10T13:50:40;101191.30;;;46.67;7.52
81109;BME280;70589;51.826;5.860;2023-06-10T13:53:06;101183.79;;;46.94;6.93
81109;BME280;70589;51.826;5.860;2023-06-10T13:55:31;101182.71;;;45.26;8.00
81109;BME280;70589;51.826;5.860;2023-06-10T13:57:57;101181.00;;;45.28;7.95
81109;BME280;70589;51.826;5.860;2023-06-10T14:00:22;101180.87;;;46.20;7.08
81109;BME280;70589;51.826;5.860;2023-06-10T14:02:48;101175.40;;;48.38;5.78
81109;BME280;70589;51.826;5.860;2023-06-10T14:05:13;101173.23;;;48.50;6.37
81109;BME280;70589;51.826;5.860;2023-06-10T14:07:39;101175.90;;;49.37;5.49
81109;BME280;70589;51.826;5.860;2023-06-10T14:10:05;101170.91;;;49.76;4.78
81109;BME280;70589;51.826;5.860;2023-06-10T14:12:30;101174.11;;;50.93;4.41
81109;BME280;70589;51.826;5.860;2023-06-10T14:14:55;101170.04;;;49.59;4.94
81109;BME280;70589;51.826;5.860;2023-06-10T14:17:20;101172.96;;;47.88;5.72
81109;BME280;70589;51.826;5.860;2023-06-10T14:19:46;101166.98;;;49.88;5.34
81109;BME280;70589;51.826;5.860;2023-06-10T14:22:11;101165.85;;;51.41;4.59
81109;BME280;70589;51.826;5.860;2023-06-10T14:24:37;101164.99;;;51.02;4.87
81109;BME280;70589;51.826;5.860;2023-06-10T14:27:03;101165.67;;;49.21;5.63
81109;BME280;70589;51.826;5.860;2023-06-10T14:29:28;101166.52;;;51.07;4.33
81109;BME280;70589;51.826;5.860;2023-06-10T14:31:54;101167.46;;;51.20;3.98
81109;BME280;70589;51.826;5.860;2023-06-10T14:34:19;101165.08;;;50.03;4.58
81109;BME280;70589;51.826;5.860;2023-06-10T14:36:44;101165.00;;;51.34;4.41
81109;BME280;70589;51.826;5.860;2023-06-10T14:39:10;101167.27;;;51.08;4.60
81109;BME280;70589;51.826;5.860;2023-06-10T14:41:35;101165.78;;;51.51;4.23
81109;BME280;70589;51.826;5.860;2023-06-10T14:44:01;101165.49;;;50.72;4.41
81109;BME280;70589;51.826;5.860;2023-06-10T14:46:27;101160.13;;;50.42;4.72
81109;BME280;70589;51.826;5.860;2023-06-10T14:48:52;101164.18;;;50.91;4.44
81109;BME280;70589;51.826;5.860;2023-06-10T14:51:18;101159.53;;;51.22;4.01
81109;BME280;70589;51.826;5.860;2023-06-10T14:53:48;101158.77;;;50.46;4.28
81109;BME280;70589;51.826;5.860;2023-06-10T14:56:10;101156.05;;;50.43;4.47
81109;BME280;70589;51.826;5.860;2023-06-10T14:58:35;101154.83;;;48.48;5.13
81109;BME280;70589;51.826;5.860;2023-06-10T15:01:00;101154.09;;;50.22;4.74
81109;BME280;70589;51.826;5.860;2023-06-10T15:03:26;101149.89;;;51.69;4.51
81109;BME280;70589;51.826;5.860;2023-06-10T15:05:52;101149.51;;;51.80;4.19
81109;BME280;70589;51.826;5.860;2023-06-10T15:08:42;101155.65;;;51.35;4.37
81109;BME280;70589;51.826;5.860;2023-06-10T15:10:42;101151.22;;;51.02;4.53
81109;BME280;70589;51.826;5.860;2023-06-10T15:13:08;101145.68;;;50.50;4.78
81109;BME280;70589;51.826;5.860;2023-06-10T15:15:33;101152.18;;;51.63;4.42
81109;BME280;70589;51.826;5.860;2023-06-10T15:17:59;101145.56;;;51.76;4.14
81109;BME280;70589;51.826;5.860;2023-06-10T15:20:24;101143.60;;;52.12;4.27
81109;BME280;70589;51.826;5.860;2023-06-10T15:22:50;101138.03;;;52.44;3.76
81109;BME280;70589;51.826;5.860;2023-06-10T15:25:16;101137.95;;;52.70;3.81
81109;BME280;70589;51.826;5.860;2023-06-10T15:27:41;101134.29;;;52.11;3.65
81109;BME280;70589;51.826;5.860;2023-06-10T15:30:07;101137.78;;;49.61;4.83
81109;BME280;70589;51.826;5.860;2023-06-10T15:32:32;101138.31;;;49.69;4.77
81109;BME280;70589;51.826;5.860;2023-06-10T15:34:57;101138.26;;;50.60;4.66
81109;BME280;70589;51.826;5.860;2023-06-10T15:37:23;101138.12;;;52.00;4.06
81109;BME280;70589;51.826;5.860;2023-06-10T15:39:48;101130.83;;;52.08;4.10
81109;BME280;70589;51.826;5.860;2023-06-10T15:42:14;101123.54;;;52.60;3.90
81109;BME280;70589;51.826;5.860;2023-06-10T15:44:39;101124.13;;;51.42;4.03
81109;BME280;70589;51.826;5.860;2023-06-10T15:47:05;101125.11;;;52.45;3.90
81109;BME280;70589;51.826;5.860;2023-06-10T15:49:30;101125.99;;;52.61;3.71
81109;BME280;70589;51.826;5.860;2023-06-10T15:52:03;101124.39;;;51.96;3.83
81109;BME280;70589;51.826;5.860;2023-06-10T15:54:21;101120.90;;;51.49;4.06
81109;BME280;70589;51.826;5.860;2023-06-10T15:56:47;101112.37;;;52.88;3.88
81109;BME280;70589;51.826;5.860;2023-06-10T15:59:12;101113.45;;;53.47;3.76
81109;BME280;70589;51.826;5.860;2023-06-10T16:01:38;101117.48;;;52.01;3.80
81109;BME280;70589;51.826;5.860;2023-06-10T16:04:03;101111.82;;;52.44;3.95
81109;BME280;70589;51.826;5.860;2023-06-10T16:06:29;101107.76;;;51.37;4.00
81109;BME280;70589;51.826;5.860;2023-06-10T16:08:54;101110.84;;;52.25;3.92
81109;BME280;70589;51.826;5.860;2023-06-10T16:11:20;101109.02;;;51.80;3.99
81109;BME280;70589;51.826;5.860;2023-06-10T16:13:45;101107.76;;;51.39;4.08
81109;BME280;70589;51.826;5.860;2023-06-10T16:16:10;101105.23;;;52.18;3.82
81109;BME280;70589;51.826;5.860;2023-06-10T16:18:36;101105.85;;;52.68;3.75
81109;BME280;70589;51.826;5.860;2023-06-10T16:21:02;101103.72;;;53.04;3.65
81109;BME280;70589;51.826;5.860;2023-06-10T16:23:27;101102.81;;;53.70;3.38
81109;BME280;70589;51.826;5.860;2023-06-10T16:25:53;101104.19;;;52.49;3.67
81109;BME280;70589;51.826;5.860;2023-06-10T16:28:18;101099.68;;;52.89;3.62
81109;BME280;70589;51.826;5.860;2023-06-10T16:30:44;101098.76;;;52.85;3.70
81109;BME280;70589;51.826;5.860;2023-06-10T16:33:09;101100.76;;;52.35;3.73
81109;BME280;70589;51.826;5.860;2023-06-10T16:35:35;101098.13;;;53.14;3.64
81109;BME280;70589;51.826;5.860;2023-06-10T16:38:00;101092.36;;;53.47;3.38
81109;BME280;70589;51.826;5.860;2023-06-10T16:40:26;101096.13;;;52.70;3.75
81109;BME280;70589;51.826;5.860;2023-06-10T16:42:51;101098.37;;;52.37;3.65
81109;BME280;70589;51.826;5.860;2023-06-10T16:45:17;101093.56;;;51.74;3.96
81109;BME280;70589;51.826;5.860;2023-06-10T16:47:42;101094.71;;;51.15;4.11
81109;BME280;70589;51.826;5.860;2023-06-10T16:50:08;101097.43;;;51.41;4.23
81109;BME280;70589;51.826;5.860;2023-06-10T16:52:33;101093.48;;;50.71;4.58
81109;BME280;70589;51.826;5.860;2023-06-10T16:54:59;101095.39;;;50.48;4.69
81109;BME280;70589;51.826;5.860;2023-06-10T16:57:24;101097.40;;;51.27;4.36
81109;BME280;70589;51.826;5.860;2023-06-10T16:59:50;101094.31;;;51.59;4.40
81109;BME280;70589;51.826;5.860;2023-06-10T17:02:16;101096.27;;;51.54;4.12
81109;BME280;70589;51.826;5.860;2023-06-10T17:04:41;101095.79;;;52.32;3.95
81109;BME280;70589;51.826;5.860;2023-06-10T17:07:06;101096.22;;;52.44;4.05
81109;BME280;70589;51.826;5.860;2023-06-10T17:09:32;101096.32;;;52.18;3.92
81109;BME280;70589;51.826;5.860;2023-06-10T17:11:57;101093.24;;;51.69;3.94
81109;BME280;70589;51.826;5.860;2023-06-10T17:14:23;101101.14;;;51.14;4.39
81109;BME280;70589;51.826;5.860;2023-06-10T17:16:48;101103.21;;;51.89;4.02
81109;BME280;70589;51.826;5.860;2023-06-10T17:41:37;101143.07;;;41.02;10.80
81109;BME280;70589;51.826;5.860;2023-06-10T17:44:04;101148.64;;;41.54;11.05
81109;BME280;70589;51.826;5.860;2023-06-10T17:46:28;101142.10;;;42.32;9.86
81109;BME280;70589;51.826;5.860;2023-06-10T17:48:54;101141.09;;;43.37;9.27
81109;BME280;70589;51.826;5.860;2023-06-10T17:51:19;101142.91;;;43.70;9.17
81109;BME280;70589;51.826;5.860;2023-06-10T17:53:45;101143.50;;;44.46;8.87
81109;BME280;70589;51.826;5.860;2023-06-10T17:56:11;101143.16;;;44.52;8.68
81109;BME280;70589;51.826;5.860;2023-06-10T17:58:36;101142.29;;;44.93;8.61
81109;BME280;70589;51.826;5.860;2023-06-10T18:01:02;101141.06;;;44.82;8.57
81109;BME280;70589;51.826;5.860;2023-06-10T18:03:28;101142.04;;;44.71;8.40
81109;BME280;70589;51.826;5.860;2023-06-10T18:05:54;101139.65;;;44.01;9.16
81109;BME280;70589;51.826;5.860;2023-06-10T18:08:19;101140.82;;;43.99;8.81
81109;BME280;70589;51.826;5.860;2023-06-10T18:10:44;101140.50;;;44.17;8.76
81109;BME280;70589;51.826;5.860;2023-06-10T18:13:10;101141.36;;;44.11;8.83
81109;BME280;70589;51.826;5.860;2023-06-10T18:15:36;101142.73;;;43.56;8.78
81109;BME280;70589;51.826;5.860;2023-06-10T18:18:01;101146.90;;;43.69;8.92
81109;BME280;70589;51.826;5.860;2023-06-10T18:20:27;101149.49;;;43.81;9.04
81109;BME280;70589;51.826;5.860;2023-06-10T18:22:52;101149.41;;;43.81;9.01
81109;BME280;70589;51.826;5.860;2023-06-10T18:25:18;101151.82;;;43.76;9.07
81109;BME280;70589;51.826;5.860;2023-06-10T18:27:43;101151.05;;;43.69;9.09
81109;BME280;70589;51.826;5.860;2023-06-10T18:30:09;101153.22;;;43.49;9.15
81109;BME280;70589;51.826;5.860;2023-06-10T18:32:34;101154.01;;;43.73;9.21
81109;BME280;70589;51.826;5.860;2023-06-10T18:35:00;101158.59;;;43.18;9.42
81109;BME280;70589;51.826;5.860;2023-06-10T18:37:26;101163.57;;;42.99;9.61
81109;BME280;70589;51.826;5.860;2023-06-10T18:39:51;101163.98;;;42.45;9.83
81109;BME280;70589;51.826;5.860;2023-06-10T18:42:17;101168.14;;;41.86;10.10
81109;BME280;70589;51.826;5.860;2023-06-10T18:44:42;101176.33;;;41.22;10.44
81109;BME280;70589;51.826;5.860;2023-06-10T18:47:11;101174.95;;;41.05;10.71
81109;BME280;70589;51.826;5.860;2023-06-10T18:49:34;101177.75;;;40.93;10.89
81109;BME280;70589;51.826;5.860;2023-06-10T18:52:00;101177.36;;;40.57;11.05
81109;BME280;70589;51.826;5.860;2023-06-10T18:54:25;101179.30;;;40.38;11.28
81109;BME280;70589;51.826;5.860;2023-06-10T18:56:51;101182.61;;;40.12;11.53
81109;BME280;70589;51.826;5.860;2023-06-10T18:59:17;101182.63;;;39.94;11.66
81109;BME280;70589;51.826;5.860;2023-06-10T19:01:42;101183.83;;;39.71;11.79
81109;BME280;70589;51.826;5.860;2023-06-10T19:04:08;101184.84;;;39.58;11.86
81109;BME280;70589;51.826;5.860;2023-06-10T19:06:33;101190.01;;;39.22;12.07
81109;BME280;70589;51.826;5.860;2023-06-10T19:08:59;101192.67;;;38.89;12.23
81109;BME280;70589;51.826;5.860;2023-06-10T19:11:24;101195.25;;;38.66;12.41
81109;BME280;70589;51.826;5.860;2023-06-10T19:13:50;101195.77;;;38.73;12.52
81109;BME280;70589;51.826;5.860;2023-06-10T19:16:16;101198.87;;;38.45;12.70
81109;BME280;70589;51.826;5.860;2023-06-10T19:18:42;101199.38;;;38.33;12.92
81109;BME280;70589;51.826;5.860;2023-06-10T19:21:07;101198.13;;;37.98;13.13
81109;BME280;70589;51.826;5.860;2023-06-10T19:23:33;101196.83;;;37.61;13.20
81109;BME280;70589;51.826;5.860;2023-06-10T19:26:00;101201.66;;;37.77;13.26
81109;BME280;70589;51.826;5.860;2023-06-10T19:28:25;101202.40;;;37.65;13.32
81109;BME280;70589;51.826;5.860;2023-06-10T19:30:51;101203.94;;;37.62;13.40
81109;BME280;70589;51.826;5.860;2023-06-10T19:33:16;101208.79;;;37.59;13.58
81109;BME280;70589;51.826;5.860;2023-06-10T19:35:42;101209.72;;;37.29;13.79
81109;BME280;70589;51.826;5.860;2023-06-10T19:38:07;101211.06;;;37.20;13.84
81109;BME280;70589;51.826;5.860;2023-06-10T19:40:33;101218.82;;;37.35;13.90
81109;BME280;70589;51.826;5.860;2023-06-10T19:42:59;101223.19;;;36.92;14.02
81109;BME280;70589;51.826;5.860;2023-06-10T19:45:24;101225.61;;;36.75;14.21
81109;BME280;70589;51.826;5.860;2023-06-10T19:47:50;101229.23;;;37.20;14.26
81109;BME280;70589;51.826;5.860;2023-06-10T19:50:16;101230.02;;;36.53;14.53
81109;BME280;70589;51.826;5.860;2023-06-10T19:52:41;101232.87;;;36.41;14.63
81109;BME280;70589;51.826;5.860;2023-06-10T19:55:08;101233.70;;;36.30;14.66
81109;BME280;70589;51.826;5.860;2023-06-10T19:57:33;101237.57;;;36.39;14.74
81109;BME280;70589;51.826;5.860;2023-06-10T19:59:59;101239.42;;;36.09;14.90
81109;BME280;70589;51.826;5.860;2023-06-10T20:02:25;101243.15;;;36.01;14.96
81109;BME280;70589;51.826;5.860;2023-06-10T20:04:51;101243.84;;;35.81;15.10
81109;BME280;70589;51.826;5.860;2023-06-10T20:07:16;101242.94;;;35.57;15.25
81109;BME280;70589;51.826;5.860;2023-06-10T20:09:43;101243.29;;;35.66;15.32
81109;BME280;70589;51.826;5.860;2023-06-10T20:12:09;101245.79;;;35.49;15.48
81109;BME280;70589;51.826;5.860;2023-06-10T20:14:34;101246.24;;;35.13;15.55
81109;BME280;70589;51.826;5.860;2023-06-10T20:16:59;101246.70;;;35.13;15.68
81109;BME280;70589;51.826;5.860;2023-06-10T20:19:25;101253.32;;;35.17;15.80
81109;BME280;70589;51.826;5.860;2023-06-10T20:21:51;101259.05;;;34.78;15.93
81109;BME280;70589;51.826;5.860;2023-06-10T20:24:17;101259.67;;;34.81;16.02
81109;BME280;70589;51.826;5.860;2023-06-10T20:26:42;101260.26;;;34.69;16.14
81109;BME280;70589;51.826;5.860;2023-06-10T20:29:08;101260.11;;;34.57;16.22
81109;BME280;70589;51.826;5.860;2023-06-10T20:31:34;101261.53;;;34.26;16.37
81109;BME280;70589;51.826;5.860;2023-06-10T20:34:00;101261.87;;;34.60;16.32
81109;BME280;70589;51.826;5.860;2023-06-10T20:36:25;101266.98;;;34.00;16.56
81109;BME280;70589;51.826;5.860;2023-06-10T20:38:50;101269.12;;;33.97;16.62
81109;BME280;70589;51.826;5.860;2023-06-10T20:41:16;101269.24;;;34.20;16.64
81109;BME280;70589;51.826;5.860;2023-06-10T20:43:41;101269.11;;;33.83;16.74
81109;BME280;70589;51.826;5.860;2023-06-10T20:46:07;101272.78;;;34.11;16.74
81109;BME280;70589;51.826;5.860;2023-06-10T20:48:33;101272.81;;;34.03;16.81
81109;BME280;70589;51.826;5.860;2023-06-10T20:50:58;101276.06;;;34.03;16.97
81109;BME280;70589;51.826;5.860;2023-06-10T20:53:24;101280.47;;;33.89;17.12
81109;BME280;70589;51.826;5.860;2023-06-10T20:55:49;101282.62;;;33.66;17.25
81109;BME280;70589;51.826;5.860;2023-06-10T20:58:14;101283.76;;;33.45;17.39
81109;BME280;70589;51.826;5.860;2023-06-10T21:00:39;101287.26;;;33.32;17.46
81109;BME280;70589;51.826;5.860;2023-06-10T21:03:04;101285.91;;;33.20;17.58
81109;BME280;70589;51.826;5.860;2023-06-10T21:05:30;101284.31;;;33.22;17.74
81109;BME280;70589;51.826;5.860;2023-06-10T21:07:55;101285.04;;;33.32;17.84
81109;BME280;70589;51.826;5.860;2023-06-10T21:10:21;101292.41;;;32.95;17.97
81109;BME280;70589;51.826;5.860;2023-06-10T21:12:46;101288.70;;;33.00;18.09
81109;BME280;70589;51.826;5.860;2023-06-10T21:15:11;101286.52;;;32.66;18.23
81109;BME280;70589;51.826;5.860;2023-06-10T21:17:36;101288.51;;;32.88;18.26
81109;BME280;70589;51.826;5.860;2023-06-10T21:20:01;101286.39;;;32.44;18.42
81109;BME280;70589;51.826;5.860;2023-06-10T21:22:27;101286.34;;;32.75;18.44
81109;BME280;70589;51.826;5.860;2023-06-10T21:24:52;101288.23;;;32.85;18.34
81109;BME280;70589;51.826;5.860;2023-06-10T21:27:17;101288.44;;;32.65;18.47
81109;BME280;70589;51.826;5.860;2023-06-10T21:29:42;101292.95;;;32.35;18.54
81109;BME280;70589;51.826;5.860;2023-06-10T21:32:08;101293.10;;;32.31;18.72
81109;BME280;70589;51.826;5.860;2023-06-10T21:34:33;101293.22;;;32.13;18.87
81109;BME280;70589;51.826;5.860;2023-06-10T21:36:58;101291.73;;;32.24;18.97
81109;BME280;70589;51.826;5.860;2023-06-10T21:39:23;101291.55;;;32.13;18.89
81109;BME280;70589;51.826;5.860;2023-06-10T21:41:49;101290.84;;;31.99;19.03
81109;BME280;70589;51.826;5.860;2023-06-10T21:44:14;101292.15;;;32.47;19.03
81109;BME280;70589;51.826;5.860;2023-06-10T21:46:40;101295.40;;;31.83;19.15
81109;BME280;70589;51.826;5.860;2023-06-10T21:49:04;101292.10;;;32.08;19.38
81109;BME280;70589;51.826;5.860;2023-06-10T21:51:29;101295.28;;;31.62;19.52
81109;BME280;70589;51.826;5.860;2023-06-10T21:53:54;101293.81;;;31.66;19.64
81109;BME280;70589;51.826;5.860;2023-06-10T21:56:20;101292.84;;;31.75;19.60
81109;BME280;70589;51.826;5.860;2023-06-10T21:58:45;101293.45;;;31.24;19.58
81109;BME280;70589;51.826;5.860;2023-06-10T22:01:10;101296.87;;;31.49;19.61
81109;BME280;70589;51.826;5.860;2023-06-10T22:03:35;101297.21;;;31.39;19.70
81109;BME280;70589;51.826;5.860;2023-06-10T22:06:00;101295.57;;;31.39;19.93
81109;BME280;70589;51.826;5.860;2023-06-10T22:08:26;101297.58;;;31.38;19.95
81109;BME280;70589;51.826;5.860;2023-06-10T22:10:51;101298.56;;;31.36;19.97
81109;BME280;70589;51.826;5.860;2023-06-10T22:13:17;101297.14;;;31.02;20.03
81109;BME280;70589;51.826;5.860;2023-06-10T22:15:42;101294.71;;;31.18;20.09
81109;BME280;70589;51.826;5.860;2023-06-10T22:18:07;101295.06;;;30.96;20.22
81109;BME280;70589;51.826;5.860;2023-06-10T22:20:33;101294.28;;;30.74;20.40
81109;BME280;70589;51.826;5.860;2023-06-10T22:22:58;101290.47;;;30.83;20.53
81109;BME280;70589;51.826;5.860;2023-06-10T22:25:23;101293.15;;;30.57;20.58
81109;BME280;70589;51.826;5.860;2023-06-10T22:27:48;101291.81;;;30.37;20.75
81109;BME280;70589;51.826;5.860;2023-06-10T22:30:14;101291.44;;;30.64;20.93
81109;BME280;70589;51.826;5.860;2023-06-10T22:32:39;101292.26;;;30.08;21.04
81109;BME280;70589;51.826;5.860;2023-06-10T22:35:05;101291.57;;;30.53;21.11
81109;BME280;70589;51.826;5.860;2023-06-10T22:37:30;101289.69;;;30.39;21.22
81109;BME280;70589;51.826;5.860;2023-06-10T22:39:55;101287.72;;;30.24;21.19
81109;BME280;70589;51.826;5.860;2023-06-10T22:42:20;101287.55;;;29.96;21.42
81109;BME280;70589;51.826;5.860;2023-06-10T22:44:45;101288.92;;;30.25;21.44
81109;BME280;70589;51.826;5.860;2023-06-10T22:47:11;101288.07;;;30.11;21.55
81109;BME280;70589;51.826;5.860;2023-06-10T22:49:36;101289.67;;;30.03;21.61
81109;BME280;70589;51.826;5.860;2023-06-10T22:52:02;101291.91;;;29.79;21.80
81109;BME280;70589;51.826;5.860;2023-06-10T22:54:28;101295.03;;;29.66;21.98
81109;BME280;70589;51.826;5.860;2023-06-10T22:56:53;101292.60;;;29.56;22.10
81109;BME280;70589;51.826;5.860;2023-06-10T22:59:18;101289.22;;;29.40;22.23
81109;BME280;70589;51.826;5.860;2023-06-10T23:01:43;101290.40;;;29.28;22.39
81109;BME280;70589;51.826;5.860;2023-06-10T23:04:09;101292.70;;;29.34;22.35
81109;BME280;70589;51.826;5.860;2023-06-10T23:06:34;101293.49;;;29.73;22.47
81109;BME280;70589;51.826;5.860;2023-06-10T23:08:59;101296.47;;;29.50;22.50
81109;BME280;70589;51.826;5.860;2023-06-10T23:11:24;101293.51;;;29.43;22.62
81109;BME280;70589;51.826;5.860;2023-06-10T23:13:50;101294.53;;;29.44;22.68
81109;BME280;70589;51.826;5.860;2023-06-10T23:16:15;101293.51;;;29.63;22.74
81109;BME280;70589;51.826;5.860;2023-06-10T23:18:40;101294.35;;;29.04;22.87
81109;BME280;70589;51.826;5.860;2023-06-10T23:21:06;101294.22;;;29.39;23.01
81109;BME280;70589;51.826;5.860;2023-06-10T23:23:31;101294.77;;;29.25;23.18
81109;BME280;70589;51.826;5.860;2023-06-10T23:25:56;101295.78;;;28.72;23.24
81109;BME280;70589;51.826;5.860;2023-06-10T23:28:22;101299.55;;;29.15;23.30
81109;BME280;70589;51.826;5.860;2023-06-10T23:30:48;101297.73;;;28.88;23.38
81109;BME280;70589;51.826;5.860;2023-06-10T23:33:13;101296.53;;;28.78;23.47
81109;BME280;70589;51.826;5.860;2023-06-10T23:35:38;101297.27;;;28.64;23.60
81109;BME280;70589;51.826;5.860;2023-06-10T23:38:04;101296.78;;;28.78;23.76
81109;BME280;70589;51.826;5.860;2023-06-10T23:40:29;101294.29;;;28.77;23.83
81109;BME280;70589;51.826;5.860;2023-06-10T23:42:54;101291.04;;;28.71;23.97
81109;BME280;70589;51.826;5.860;2023-06-10T23:45:19;101292.10;;;28.69;24.01
81109;BME280;70589;51.826;5.860;2023-06-10T23:47:44;101290.97;;;28.60;24.15
81109;BME280;70589;51.826;5.860;2023-06-10T23:50:10;101292.47;;;28.94;24.35
81109;BME280;70589;51.826;5.860;2023-06-10T23:52:35;101292.17;;;28.38;24.45
81109;BME280;70589;51.826;5.860;2023-06-10T23:55:00;101289.50;;;28.41;24.46
81109;BME280;70589;51.826;5.860;2023-06-10T23:57:26;101290.06;;;28.28;24.55
81109;BME280;70589;51.826;5.860;2023-06-10T23:59:51;101290.17;;;28.61;24.77
